Time;durP1;ratioP1;P1;durP2;ratioP2;P2;SDS_P1;SDS_P2;PMS_P1;PMS_P2;Temp;Humidity;BMP_temperature;BMP_pressure;BME280_temperature;BME280_humidity;BME280_pressure;Samples;Min_cycle;Max_cycle;Signal;HPM_P1;HPM_P2
2023/05/04 00:01:44;;;;;;;9.48;4.47;;;435.70;2355.20;;;;;;5022659;28;20026;-70
2023/05/04 00:04:10;;;;;;;7.63;4.40;;;435.80;2355.20;;;;;;5019680;28;20397;-70
2023/05/04 00:06:36;;;;;;;7.47;4.88;;;435.70;2355.20;;;;;;5028345;28;20021;-70
2023/05/04 00:09:03;;;;;;;5.78;4.20;;;435.80;2355.20;;;;;;5030940;28;20621;-71
2023/05/04 00:11:29;;;;;;;6.10;4.18;;;435.90;2355.20;;;;;;5028474;28;20144;-74
2023/05/04 00:13:54;;;;;;;9.45;4.63;;;435.90;2355.20;;;;;;5026841;28;20506;-71
2023/05/04 00:16:20;;;;;;;6.95;4.10;;;435.90;2355.20;;;;;;5023566;28;20018;-71
2023/05/04 00:18:46;;;;;;;13.27;4.93;;;435.90;2355.20;;;;;;5030433;28;20033;-71
2023/05/04 00:21:12;;;;;;;7.68;5.30;;;435.90;2355.20;;;;;;5027665;28;20028;-71
2023/05/04 00:23:37;;;;;;;9.82;4.32;;;435.90;2355.20;;;;;;5026576;28;20029;-71
2023/05/04 00:26:03;;;;;;;8.15;4.65;;;436.00;2355.20;;;;;;5030934;28;20397;-72
2023/05/04 00:28:29;;;;;;;8.98;4.40;;;435.90;2355.20;;;;;;5024101;28;20068;-74
2023/05/04 00:30:55;;;;;;;8.40;4.40;;;435.90;2355.20;;;;;;5027019;28;20022;-71
2023/05/04 00:33:21;;;;;;;7.18;4.50;;;435.90;2355.20;;;;;;5032682;28;20101;-71
2023/05/04 00:35:47;;;;;;;7.65;3.90;;;435.90;2355.20;;;;;;5025919;28;20092;-71
2023/05/04 00:38:14;;;;;;;7.82;4.88;;;435.90;2355.20;;;;;;5024929;28;20117;-70
2023/05/04 00:40:40;;;;;;;8.02;4.97;;;435.90;2355.20;;;;;;5023953;28;20026;-70
2023/05/04 00:43:06;;;;;;;8.38;4.90;;;435.90;2355.20;;;;;;5028260;28;20029;-70
2023/05/04 00:45:32;;;;;;;8.55;4.90;;;435.90;2355.20;;;;;;5026122;28;20386;-71
2023/05/04 00:47:58;;;;;;;8.05;4.93;;;435.80;2355.20;;;;;;5021585;28;20045;-71
2023/05/04 00:50:25;;;;;;;7.93;4.72;;;435.80;2355.20;;;;;;5032441;28;20020;-72
2023/05/04 00:52:54;;;;;;;10.38;6.03;;;435.70;2355.20;;;;;;5022743;28;20045;-71
2023/05/04 00:55:20;;;;;;;8.65;5.55;;;435.60;2355.20;;;;;;5029005;28;20027;-71
2023/05/04 00:57:47;;;;;;;8.40;4.95;;;435.60;2355.20;;;;;;5027377;28;20120;-71
2023/05/04 01:00:13;;;;;;;11.10;5.05;;;435.60;2355.20;;;;;;5024230;28;20030;-71
2023/05/04 01:02:40;;;;;;;14.98;5.90;;;435.60;2355.20;;;;;;5025542;28;20493;-70
2023/05/04 01:05:07;;;;;;;11.65;6.57;;;435.60;2355.20;;;;;;5028583;28;20026;-71
2023/05/04 01:07:56;;;;;;;13.40;7.18;;;435.50;2355.20;;;;;;5025813;28;20021;-71
2023/05/04 01:10:31;;;;;;;14.75;6.47;;;435.50;2355.20;;;;;;5029923;28;20059;-71
2023/05/04 01:13:06;;;;;;;11.38;6.20;;;435.50;2355.20;;;;;;5023740;28;20022;-72
2023/05/04 01:15:33;;;;;;;12.70;7.50;;;435.50;2355.20;;;;;;5031550;28;20488;-71
2023/05/04 01:17:59;;;;;;;9.20;5.32;;;435.50;2355.20;;;;;;5032256;28;20084;-71
2023/05/04 01:20:25;;;;;;;11.98;6.15;;;435.50;2355.20;;;;;;5025533;28;20112;-72
2023/05/04 01:22:51;;;;;;;13.98;6.85;;;435.50;2355.20;;;;;;5013437;28;20064;-72
2023/05/04 01:25:17;;;;;;;15.23;7.03;;;435.50;2355.20;;;;;;5014369;28;20378;-71
2023/05/04 01:27:51;;;;;;;13.00;6.57;;;435.50;2355.20;;;;;;5025349;28;20033;-71
2023/05/04 01:30:25;;;;;;;14.20;6.95;;;435.50;2355.20;;;;;;5033094;28;20105;-72
2023/05/04 01:32:51;;;;;;;12.65;7.25;;;435.30;2355.20;;;;;;5033214;28;20038;-71
2023/05/04 01:35:17;;;;;;;15.45;8.10;;;435.20;2355.20;;;;;;5032947;28;20026;-71
2023/05/04 01:37:43;;;;;;;11.27;7.65;;;435.20;2355.20;;;;;;5025997;28;20475;-71
2023/05/04 01:40:09;;;;;;;9.82;6.53;;;410.50;2355.20;;;;;;5015190;28;20072;-71
2023/05/04 01:42:35;;;;;;;12.05;7.35;;;435.20;2355.20;;;;;;5017809;28;20140;-72
2023/05/04 01:45:02;;;;;;;10.35;6.53;;;435.20;2355.20;;;;;;5013475;28;20482;-71
2023/05/04 01:47:28;;;;;;;10.25;7.22;;;410.50;2355.20;;;;;;5020112;28;20025;-72
2023/05/04 01:49:53;;;;;;;8.57;6.07;;;410.50;2355.20;;;;;;5023371;28;20026;-72
2023/05/04 01:52:19;;;;;;;11.43;7.47;;;410.50;2355.20;;;;;;5016154;28;20029;-71
2023/05/04 01:54:44;;;;;;;10.13;7.18;;;410.50;2355.20;;;;;;5036150;28;20026;-71
2023/05/04 01:57:10;;;;;;;15.05;7.90;;;410.50;2355.20;;;;;;5031405;28;20076;-71
2023/05/04 01:59:36;;;;;;;20.23;9.68;;;410.40;2355.20;;;;;;5018797;28;20030;-80
2023/05/04 02:02:01;;;;;;;18.15;8.95;;;410.50;2355.20;;;;;;5033042;28;20014;-80
2023/05/04 02:04:27;;;;;;;15.55;9.35;;;410.50;2355.20;;;;;;5031842;28;20489;-70
2023/05/04 02:06:53;;;;;;;9.48;7.15;;;410.50;2355.20;;;;;;5035924;28;20099;-71
2023/05/04 02:09:18;;;;;;;13.57;7.28;;;410.40;2355.20;;;;;;5016160;28;20029;-71
2023/05/04 02:11:44;;;;;;;10.60;6.95;;;410.30;2355.20;;;;;;5018504;28;20504;-71
2023/05/04 02:14:10;;;;;;;8.82;6.70;;;410.20;2355.20;;;;;;5018488;28;20045;-71
2023/05/04 02:16:36;;;;;;;10.65;6.65;;;410.20;2355.20;;;;;;5018292;28;20022;-71
2023/05/04 02:19:01;;;;;;;10.07;6.82;;;410.20;2355.20;;;;;;5018061;28;20113;-71
2023/05/04 02:21:28;;;;;;;9.73;6.63;;;410.20;2355.20;;;;;;5015161;28;20110;-71
2023/05/04 02:23:54;;;;;;;16.13;6.97;;;410.30;2355.20;;;;;;5018189;28;20022;-71
2023/05/04 02:26:20;;;;;;;14.55;7.32;;;410.40;2355.20;;;;;;5018060;28;20026;-71
2023/05/04 02:28:46;;;;;;;11.27;6.55;;;410.40;2355.20;;;;;;5015385;28;20033;-72
2023/05/04 02:31:11;;;;;;;13.80;6.97;;;410.50;2355.20;;;;;;5015501;28;20022;-75
2023/05/04 02:33:37;;;;;;;13.63;6.85;;;435.20;2355.20;;;;;;5020769;28;20050;-72
2023/05/04 02:36:03;;;;;;;10.55;6.40;;;435.20;2355.20;;;;;;5015190;28;20488;-71
2023/05/04 02:38:29;;;;;;;12.00;6.50;;;435.20;2355.20;;;;;;5023379;28;20030;-72
2023/05/04 02:40:57;;;;;;;15.43;8.48;;;435.20;2355.20;;;;;;5018002;28;20529;-72
2023/05/04 02:43:22;;;;;;;11.90;7.95;;;435.20;2355.20;;;;;;5020458;28;20018;-71
2023/05/04 02:45:48;;;;;;;14.93;8.23;;;435.30;2355.20;;;;;;5017751;28;20049;-76
2023/05/04 02:48:14;;;;;;;11.75;6.72;;;435.30;2355.20;;;;;;5015070;28;20033;-71
2023/05/04 02:50:39;;;;;;;9.95;7.95;;;435.30;2355.20;;;;;;5014902;28;20022;-71
2023/05/04 02:53:05;;;;;;;9.75;7.20;;;435.20;2355.20;;;;;;5014432;28;20041;-72
2023/05/04 02:55:31;;;;;;;10.15;7.03;;;435.30;2355.20;;;;;;5020326;28;20022;-71
2023/05/04 02:57:57;;;;;;;12.98;7.85;;;435.30;2355.20;;;;;;5014431;28;20041;-71
2023/05/04 03:00:23;;;;;;;9.30;6.78;;;435.20;2355.20;;;;;;5017448;28;20022;-71
2023/05/04 03:02:48;;;;;;;13.10;8.05;;;435.20;2355.20;;;;;;5018010;28;20348;-71
2023/05/04 03:05:14;;;;;;;13.02;7.70;;;435.20;2355.20;;;;;;5015615;28;20026;-73
2023/05/04 03:07:40;;;;;;;16.60;8.07;;;435.20;2355.20;;;;;;5016787;28;20028;-71
2023/05/04 03:10:08;;;;;;;12.15;6.57;;;435.20;2355.20;;;;;;5016660;28;20093;-71
2023/05/04 03:12:33;;;;;;;11.15;7.40;;;410.50;2355.20;;;;;;5019465;28;20029;-71
2023/05/04 03:14:59;;;;;;;13.15;7.85;;;410.40;2355.20;;;;;;5013942;28;20026;-71
2023/05/04 03:17:25;;;;;;;14.38;8.43;;;410.40;2355.20;;;;;;5022101;28;20351;-71
2023/05/04 03:19:51;;;;;;;13.75;7.78;;;410.50;2355.20;;;;;;5016437;28;20065;-71
2023/05/04 03:22:16;;;;;;;15.77;8.98;;;410.30;2355.20;;;;;;5016430;28;20026;-80
2023/05/04 03:24:42;;;;;;;10.95;7.72;;;410.50;2355.20;;;;;;5016242;28;20394;-71
2023/05/04 03:27:08;;;;;;;9.73;6.78;;;435.20;2355.20;;;;;;5013612;28;20367;-72
2023/05/04 03:29:33;;;;;;;11.55;6.32;;;435.20;2355.20;;;;;;5013834;28;20026;-71
2023/05/04 03:31:59;;;;;;;8.50;5.97;;;410.50;2355.20;;;;;;5021809;28;20022;-72
2023/05/04 03:34:25;;;;;;;12.77;5.57;;;435.20;2355.20;;;;;;5016293;28;20030;-72
2023/05/04 03:36:50;;;;;;;9.48;5.00;;;435.20;2355.20;;;;;;5014405;28;20067;-71
2023/05/04 03:39:16;;;;;;;9.70;4.95;;;435.20;2355.20;;;;;;5017688;28;20030;-72
2023/05/04 03:41:43;;;;;;;7.60;4.88;;;410.40;2355.20;;;;;;5016151;28;20022;-71
2023/05/04 03:44:08;;;;;;;7.57;4.75;;;410.50;2355.20;;;;;;5016516;28;20076;-72
2023/05/04 03:46:34;;;;;;;6.88;4.75;;;435.20;2355.20;;;;;;5016246;28;20022;-71
2023/05/04 03:49:00;;;;;;;10.15;5.70;;;435.20;2355.20;;;;;;5016180;28;20018;-72
2023/05/04 03:51:26;;;;;;;12.45;5.82;;;435.20;2355.20;;;;;;5015792;28;20505;-71
2023/05/04 03:53:51;;;;;;;8.25;5.40;;;435.20;2355.20;;;;;;5012766;28;20042;-71
2023/05/04 03:56:17;;;;;;;10.23;6.20;;;435.30;2355.20;;;;;;5018742;28;20033;-81
2023/05/04 03:58:43;;;;;;;7.78;4.97;;;435.30;2355.20;;;;;;5028166;28;20083;-71
2023/05/04 04:01:08;;;;;;;9.65;5.93;;;435.30;2355.20;;;;;;5015715;28;20123;-71
2023/05/04 04:03:37;;;;;;;9.55;5.90;;;435.40;2355.20;;;;;;5014331;28;20049;-81
2023/05/04 04:06:06;;;;;;;11.52;6.50;;;435.40;2355.20;;;;;;5019081;28;20022;-81
2023/05/04 04:08:32;;;;;;;9.50;5.72;;;435.30;2355.20;;;;;;5015598;28;20010;-72
2023/05/04 04:10:58;;;;;;;11.63;6.72;;;435.30;2355.20;;;;;;5016861;28;20041;-74
2023/05/04 04:13:24;;;;;;;13.27;5.90;;;435.30;2355.20;;;;;;5016301;28;20013;-71
2023/05/04 04:15:49;;;;;;;11.88;5.55;;;435.30;2355.20;;;;;;5013039;28;20497;-73
2023/05/04 04:18:15;;;;;;;11.68;6.05;;;435.30;2355.20;;;;;;5020933;28;20462;-72
2023/05/04 04:20:41;;;;;;;12.80;6.32;;;435.30;2355.20;;;;;;5017421;28;20379;-71
2023/05/04 04:23:06;;;;;;;9.57;6.50;;;435.30;2355.20;;;;;;5013034;28;20026;-71
2023/05/04 04:25:32;;;;;;;15.50;7.38;;;435.30;2355.20;;;;;;5017892;28;20022;-78
2023/05/04 04:27:58;;;;;;;13.13;6.40;;;435.30;2355.20;;;;;;5012782;28;20028;-71
2023/05/04 04:30:24;;;;;;;15.25;7.50;;;435.30;2355.20;;;;;;5012689;28;20025;-71
2023/05/04 04:32:50;;;;;;;9.75;6.88;;;435.30;2355.20;;;;;;5012598;28;20370;-71
2023/05/04 04:35:15;;;;;;;10.40;7.38;;;435.30;2355.20;;;;;;5012572;28;20018;-80
2023/05/04 04:37:41;;;;;;;10.57;7.07;;;435.40;2355.20;;;;;;5022951;28;20014;-72
2023/05/04 04:40:07;;;;;;;11.82;6.35;;;435.40;2355.20;;;;;;5021520;28;20038;-71
2023/05/04 04:42:33;;;;;;;11.60;7.90;;;435.50;2355.20;;;;;;5020677;28;20535;-72
2023/05/04 04:44:59;;;;;;;9.82;6.75;;;435.50;2355.20;;;;;;5012470;28;20026;-72
2023/05/04 04:47:25;;;;;;;11.80;6.28;;;435.40;2355.20;;;;;;5015191;28;20026;-83
2023/05/04 04:49:51;;;;;;;16.17;6.93;;;435.30;2355.20;;;;;;5020945;28;20623;-74
2023/05/04 04:52:17;;;;;;;16.70;7.07;;;435.40;2355.20;;;;;;5032213;28;20022;-71
2023/05/04 04:54:44;;;;;;;15.70;7.38;;;435.30;2355.20;;;;;;5016650;28;20033;-72
2023/05/04 04:57:10;;;;;;;10.70;7.28;;;435.30;2355.20;;;;;;5017725;28;20026;-72
2023/05/04 04:59:36;;;;;;;11.75;6.80;;;435.20;2355.20;;;;;;5013417;28;20389;-72
2023/05/04 05:02:02;;;;;;;12.38;8.35;;;435.20;2355.20;;;;;;5023615;28;20029;-73
2023/05/04 05:04:28;;;;;;;13.90;10.63;;;435.30;2355.20;;;;;;5025324;28;20025;-72
2023/05/04 05:06:54;;;;;;;15.40;10.80;;;435.30;2355.20;;;;;;5029699;28;20454;-70
2023/05/04 05:09:20;;;;;;;17.77;11.02;;;435.30;2355.20;;;;;;5031277;28;20359;-71
2023/05/04 05:11:46;;;;;;;17.90;11.43;;;435.40;2355.20;;;;;;5030070;28;20021;-73
2023/05/04 05:14:11;;;;;;;15.10;10.90;;;435.50;2355.20;;;;;;5025666;28;20452;-72
2023/05/04 05:16:37;;;;;;;14.57;10.18;;;435.30;2355.20;;;;;;5028471;28;20186;-73
2023/05/04 05:19:03;;;;;;;15.32;9.05;;;435.40;2355.20;;;;;;5024857;28;20033;-71
2023/05/04 05:21:28;;;;;;;12.07;8.07;;;435.50;2355.20;;;;;;5028358;28;20029;-74
2023/05/04 05:23:54;;;;;;;14.57;8.00;;;435.50;2355.20;;;;;;5038353;28;20033;-74
2023/05/04 05:26:20;;;;;;;9.93;7.60;;;435.50;2355.20;;;;;;5030768;28;20030;-71
2023/05/04 05:28:46;;;;;;;15.00;7.38;;;435.50;2355.20;;;;;;5026383;28;20022;-72
2023/05/04 05:31:12;;;;;;;13.10;6.80;;;435.60;2355.20;;;;;;5022513;28;20052;-72
2023/05/04 05:33:39;;;;;;;13.07;7.38;;;435.60;2355.20;;;;;;5029929;28;20053;-77
2023/05/04 05:36:05;;;;;;;10.90;7.47;;;435.60;2355.20;;;;;;5030327;28;20029;-71
2023/05/04 05:38:31;;;;;;;15.45;9.55;;;435.70;2355.20;;;;;;5029221;28;20029;-71
2023/05/04 05:40:56;;;;;;;17.13;9.70;;;435.70;2355.20;;;;;;5034644;28;20030;-72
2023/05/04 05:43:22;;;;;;;18.08;9.32;;;435.70;2355.20;;;;;;5033115;28;20367;-73
2023/05/04 05:45:48;;;;;;;11.95;7.32;;;435.70;2355.20;;;;;;5029356;28;20060;-72
2023/05/04 05:48:13;;;;;;;10.82;6.55;;;435.80;2355.20;;;;;;5029818;28;20030;-71
2023/05/04 05:50:39;;;;;;;11.70;7.43;;;435.90;2355.20;;;;;;5031001;28;20105;-73
2023/05/04 05:53:05;;;;;;;11.60;7.45;;;436.00;2355.20;;;;;;5026638;28;20057;-73
2023/05/04 05:55:30;;;;;;;13.98;7.18;;;436.00;2355.20;;;;;;5035442;28;20053;-73
2023/05/04 05:57:56;;;;;;;9.20;6.22;;;435.90;2355.20;;;;;;5035297;28;20028;-72
2023/05/04 06:00:23;;;;;;;8.15;5.30;;;436.00;2355.20;;;;;;5033336;28;20029;-74
2023/05/04 06:02:49;;;;;;;11.30;5.57;;;435.90;2355.20;;;;;;5028068;28;20097;-73
2023/05/04 06:05:15;;;;;;;10.05;5.72;;;435.90;2355.20;;;;;;5026444;28;20044;-72
2023/05/04 06:07:41;;;;;;;10.88;6.22;;;436.00;2355.20;;;;;;5034851;28;20458;-72
2023/05/04 06:10:07;;;;;;;9.02;5.32;;;436.10;2355.20;;;;;;5034998;28;20385;-73
2023/05/04 06:12:33;;;;;;;7.50;5.40;;;435.90;2355.20;;;;;;5035059;28;20025;-72
2023/05/04 06:14:59;;;;;;;27.67;6.88;;;435.90;2355.20;;;;;;5030124;28;20022;-72
2023/05/04 06:17:24;;;;;;;9.27;4.53;;;436.00;2355.20;;;;;;5028263;28;20474;-73
2023/05/04 06:19:50;;;;;;;10.27;5.20;;;436.00;2355.20;;;;;;5029120;28;20033;-73
2023/05/04 06:22:16;;;;;;;8.75;5.97;;;436.00;2355.20;;;;;;5027447;28;20393;-73
2023/05/04 06:24:42;;;;;;;13.63;8.05;;;436.00;2355.20;;;;;;5029551;28;20551;-73
2023/05/04 06:27:08;;;;;;;14.10;9.38;;;436.00;2355.20;;;;;;5034197;28;20057;-71
2023/05/04 06:29:36;;;;;;;14.50;9.68;;;435.90;2355.20;;;;;;5030560;28;20037;-73
2023/05/04 06:32:02;;;;;;;13.80;8.70;;;435.90;2355.20;;;;;;5027600;28;20101;-72
2023/05/04 06:34:28;;;;;;;15.52;8.52;;;435.90;2355.20;;;;;;5024320;28;20064;-72
2023/05/04 06:36:54;;;;;;;14.57;10.60;;;435.90;2355.20;;;;;;5034794;28;20013;-70
2023/05/04 06:39:20;;;;;;;24.63;13.68;;;435.80;2355.20;;;;;;5028858;28;20037;-77
2023/05/04 06:41:45;;;;;;;16.38;11.43;;;435.90;2355.20;;;;;;5025252;28;20022;-72
2023/05/04 06:44:11;;;;;;;18.35;10.40;;;435.80;2355.20;;;;;;5025751;28;20022;-73
2023/05/04 06:46:37;;;;;;;11.85;9.20;;;435.90;2355.20;;;;;;5034600;28;20026;-71
2023/05/04 06:49:03;;;;;;;11.07;8.93;;;435.90;2355.20;;;;;;5027947;28;20022;-72
2023/05/04 06:51:30;;;;;;;13.90;9.50;;;435.90;2355.20;;;;;;5032462;28;20021;-72
2023/05/04 06:53:55;;;;;;;13.48;9.32;;;435.90;2355.20;;;;;;5025502;28;20065;-73
2023/05/04 06:56:22;;;;;;;13.35;8.63;;;435.80;2355.20;;;;;;5028858;28;20390;-72
2023/05/04 06:58:49;;;;;;;12.98;8.90;;;435.80;2355.20;;;;;;5034262;28;20104;-72
2023/05/04 07:01:15;;;;;;;12.88;8.63;;;435.70;2355.20;;;;;;5022497;28;20018;-73
2023/05/04 07:03:41;;;;;;;14.60;10.93;;;435.80;2355.20;;;;;;5024190;28;20385;-74
2023/05/04 07:06:08;;;;;;;13.35;10.02;;;435.80;2355.20;;;;;;5028609;28;20025;-74
2023/05/04 07:08:33;;;;;;;13.43;10.43;;;435.70;2355.20;;;;;;5028639;28;20108;-76
2023/05/04 07:10:59;;;;;;;15.40;10.93;;;435.60;2355.20;;;;;;5033847;28;20100;-75
2023/05/04 07:13:26;;;;;;;15.52;10.88;;;435.60;2355.20;;;;;;5025580;28;20538;-74
2023/05/04 07:15:51;;;;;;;15.70;11.60;;;435.60;2355.20;;;;;;5033939;28;20017;-73
2023/05/04 07:18:17;;;;;;;17.05;11.27;;;435.60;2355.20;;;;;;5024604;28;20029;-74
2023/05/04 07:20:43;;;;;;;14.82;10.70;;;435.50;2355.20;;;;;;5028984;28;20033;-72
2023/05/04 07:23:08;;;;;;;13.30;9.93;;;435.50;2355.20;;;;;;5029284;28;20464;-73
2023/05/04 07:25:34;;;;;;;16.30;10.98;;;435.50;2355.20;;;;;;5032701;28;20075;-74
2023/05/04 07:28:00;;;;;;;13.70;10.65;;;435.40;2355.20;;;;;;5022485;28;20520;-74
2023/05/04 07:30:26;;;;;;;13.98;10.43;;;435.40;2355.20;;;;;;5027969;28;20026;-72
2023/05/04 07:32:52;;;;;;;12.80;10.32;;;435.30;2355.20;;;;;;5023953;28;20377;-71
2023/05/04 07:35:18;;;;;;;17.17;10.45;;;435.30;2355.20;;;;;;5029526;28;20037;-72
2023/05/04 07:37:43;;;;;;;15.85;10.98;;;435.30;2355.20;;;;;;5024795;28;20022;-71
2023/05/04 07:40:10;;;;;;;15.27;11.75;;;435.30;2355.20;;;;;;5030295;28;20363;-71
2023/05/04 07:42:36;;;;;;;17.10;10.25;;;435.30;2355.20;;;;;;5032096;28;20381;-72
2023/05/04 07:45:02;;;;;;;13.88;9.68;;;435.20;2355.20;;;;;;5029588;28;20105;-72
2023/05/04 07:47:27;;;;;;;11.90;9.43;;;435.20;2355.20;;;;;;5022138;28;20421;-71
2023/05/04 07:49:53;;;;;;;14.90;9.73;;;410.40;2355.20;;;;;;5031942;28;20053;-73
2023/05/04 07:52:19;;;;;;;14.88;9.52;;;410.30;2355.20;;;;;;5032980;28;20083;-71
2023/05/04 07:54:44;;;;;;;13.15;8.85;;;410.30;2355.20;;;;;;5029145;28;20441;-71
2023/05/04 07:57:10;;;;;;;16.25;9.88;;;410.30;2355.20;;;;;;5028955;28;20083;-71
2023/05/04 07:59:36;;;;;;;13.75;9.50;;;410.20;2355.20;;;;;;5033928;28;20041;-71
2023/05/04 08:02:01;;;;;;;14.02;9.90;;;410.20;2355.20;;;;;;5024743;28;20490;-71
2023/05/04 08:04:27;;;;;;;11.52;9.20;;;410.20;2355.20;;;;;;5027934;28;20437;-72
2023/05/04 08:06:53;;;;;;;12.65;9.65;;;410.20;2355.20;;;;;;5031952;28;20449;-72
2023/05/04 08:09:19;;;;;;;11.55;9.05;;;410.30;2355.20;;;;;;5026350;28;20049;-71
2023/05/04 08:11:45;;;;;;;13.93;9.10;;;410.40;2355.20;;;;;;5029413;28;20017;-73
2023/05/04 08:14:11;;;;;;;16.23;10.10;;;410.40;2355.20;;;;;;5028142;28;21808;-72
2023/05/04 08:16:38;;;;;;;14.25;9.90;;;410.50;2355.20;;;;;;5027143;28;20026;-72
2023/05/04 08:19:04;;;;;;;19.23;10.15;;;410.50;2355.20;;;;;;5023421;28;20069;-73
2023/05/04 08:21:30;;;;;;;16.13;12.68;;;410.50;2355.20;;;;;;5032959;28;20025;-71
2023/05/04 08:23:56;;;;;;;24.23;19.60;;;435.20;2355.20;;;;;;5022769;28;20033;-71
2023/05/04 08:26:22;;;;;;;25.75;18.30;;;435.30;2355.20;;;;;;5028571;28;20502;-73
2023/05/04 08:28:48;;;;;;;26.02;20.45;;;435.30;2355.20;;;;;;5026772;28;20493;-72
2023/05/04 08:31:14;;;;;;;23.63;18.35;;;435.50;2355.20;;;;;;5023096;28;20030;-73
2023/05/04 08:33:40;;;;;;;25.13;18.88;;;435.60;2355.20;;;;;;5025818;28;20378;-72
2023/05/04 08:36:08;;;;;;;25.55;18.30;;;435.50;2355.20;;;;;;5026376;28;20128;-72
2023/05/04 08:38:33;;;;;;;24.40;19.73;;;435.70;2355.20;;;;;;5028159;28;20017;-72
2023/05/04 08:41:06;;;;;;;23.05;19.73;;;435.90;2355.20;;;;;;5023997;28;20044;-73
2023/05/04 08:43:38;;;;;;;24.08;18.58;;;435.90;2355.20;;;;;;5029942;28;20021;-72
2023/05/04 08:46:05;;;;;;;26.52;20.30;;;435.90;2355.20;;;;;;5030237;28;20025;-72
2023/05/04 08:48:34;;;;;;;26.33;19.35;;;436.00;2355.20;;;;;;5024255;28;20172;-72
2023/05/04 08:51:01;;;;;;;19.58;12.07;;;436.00;2355.20;;;;;;5029185;28;20022;-73
2023/05/04 08:53:28;;;;;;;13.30;10.20;;;436.00;2355.20;;;;;;5023922;28;20128;-72
2023/05/04 08:55:55;;;;;;;14.77;9.88;;;436.00;2355.20;;;;;;5027941;28;20109;-72
2023/05/04 08:58:22;;;;;;;16.15;9.95;;;436.00;2355.20;;;;;;5028044;28;20029;-72
2023/05/04 09:00:48;;;;;;;20.80;10.85;;;436.10;2355.20;;;;;;5031611;28;20510;-71
2023/05/04 09:03:15;;;;;;;14.05;10.10;;;460.80;2380.80;;;;;;5028412;28;20029;-72
2023/05/04 09:05:45;;;;;;;16.60;13.27;;;460.90;2380.80;;;;;;5025593;28;20022;-71
2023/05/04 09:08:11;;;;;;;17.42;10.65;;;461.00;2380.80;;;;;;5027873;28;20017;-71
2023/05/04 09:10:36;;;;;;;27.13;17.75;;;461.10;2380.80;;;;;;5025766;28;20038;-72
2023/05/04 09:13:02;;;;;;;16.02;10.45;;;460.90;2380.80;;;;;;5025702;28;20032;-72
2023/05/04 09:15:28;;;;;;;10.65;8.73;;;461.00;2380.80;;;;;;5024513;28;20136;-72
2023/05/04 09:18:01;;;;;;;12.60;9.07;;;461.00;2380.80;;;;;;5027832;28;20087;-72
2023/05/04 09:20:28;;;;;;;12.82;8.45;;;461.00;2380.80;;;;;;5027545;28;20124;-72
2023/05/04 09:23:07;;;;;;;11.10;7.43;;;461.10;2380.80;;;;;;5020037;28;20022;-71
2023/05/04 09:25:34;;;;;;;16.98;7.72;;;460.90;2380.80;;;;;;5023285;28;20103;-72
2023/05/04 09:28:00;;;;;;;18.80;7.55;;;460.90;2380.80;;;;;;5027416;28;20367;-72
2023/05/04 09:30:25;;;;;;;13.32;6.95;;;461.00;2380.80;;;;;;5017046;28;20046;-72
2023/05/04 09:32:51;;;;;;;10.50;6.30;;;461.10;2380.80;;;;;;5026116;28;20053;-73
2023/05/04 09:35:28;;;;;;;9.70;7.93;;;461.10;2380.80;;;;;;5023355;28;20022;-73
2023/05/04 09:37:54;;;;;;;14.25;7.82;;;461.10;2380.80;;;;;;5026436;28;20013;-72
2023/05/04 09:40:29;;;;;;;11.68;7.57;;;461.20;2380.80;;;;;;5027561;28;20038;-71
2023/05/04 09:42:56;;;;;;;14.27;7.83;;;461.20;2380.80;;;;;;5016395;28;20021;-71
2023/05/04 09:45:21;;;;;;;13.48;7.93;;;461.00;2380.80;;;;;;5023249;28;20247;-72
2023/05/04 09:47:51;;;;;;;14.23;8.07;;;461.10;2380.80;;;;;;5028122;28;20041;-71
2023/05/04 09:50:21;;;;;;;12.88;9.18;;;461.10;2380.80;;;;;;5020895;28;20037;-72
2023/05/04 09:52:47;;;;;;;14.63;9.50;;;461.00;2380.80;;;;;;5029431;28;20083;-72
2023/05/04 09:55:14;;;;;;;17.33;9.25;;;461.10;2380.80;;;;;;5028057;28;20029;-71
2023/05/04 09:57:44;;;;;;;12.68;9.32;;;461.10;2380.80;;;;;;5029383;28;20029;-71
2023/05/04 10:00:17;;;;;;;15.10;9.55;;;461.10;2380.80;;;;;;5022676;28;20061;-72
2023/05/04 10:02:45;;;;;;;14.35;9.52;;;461.00;2380.80;;;;;;5021446;28;20041;-72
2023/05/04 10:05:20;;;;;;;14.38;9.80;;;461.10;2380.80;;;;;;5028485;28;20057;-72
2023/05/04 10:07:45;;;;;;;17.15;8.55;;;461.20;2380.80;;;;;;5025816;28;20460;-71
2023/05/04 10:10:13;;;;;;;14.70;8.88;;;461.20;2380.80;;;;;;5028986;28;20053;-72
2023/05/04 10:12:39;;;;;;;12.27;7.93;;;461.20;2380.80;;;;;;5028616;28;20079;-71
2023/05/04 10:15:10;;;;;;;11.00;7.70;;;461.20;2380.80;;;;;;5029901;28;20509;-73
2023/05/04 10:17:42;;;;;;;13.40;8.70;;;461.20;2380.80;;;;;;5035341;28;20381;-71
2023/05/04 10:20:25;;;;;;;15.75;9.18;;;461.20;2380.80;;;;;;5031559;28;20033;-71
2023/05/04 10:23:09;;;;;;;13.88;10.70;;;461.20;2380.80;;;;;;5027496;28;20033;-71
2023/05/04 10:25:43;;;;;;;13.18;9.63;;;461.10;2380.80;;;;;;5029784;28;20117;-71
2023/05/04 10:28:31;;;;;;;12.48;10.50;;;461.10;2380.80;;;;;;5021591;28;20049;-72
2023/05/04 10:30:57;;;;;;;14.57;10.93;;;461.00;2380.80;;;;;;5027665;28;20025;-71
2023/05/04 10:33:39;;;;;;;13.55;10.45;;;461.00;2380.80;;;;;;5029135;28;20029;-72
2023/05/04 10:36:06;;;;;;;14.63;9.18;;;461.00;2380.80;;;;;;5026060;28;20022;-72
2023/05/04 10:38:34;;;;;;;13.52;9.23;;;461.00;2380.80;;;;;;5034818;28;20029;-71
2023/05/04 10:41:00;;;;;;;20.67;9.57;;;461.10;2380.80;;;;;;5030524;28;20122;-71
2023/05/04 10:43:28;;;;;;;11.43;9.35;;;461.10;2380.80;;;;;;5032300;28;20018;-73
2023/05/04 10:45:56;;;;;;;22.80;17.77;;;461.10;2380.80;;;;;;5023453;28;20029;-71
2023/05/04 10:48:34;;;;;;;16.33;12.48;;;461.20;2380.80;;;;;;5030163;28;20025;-71
2023/05/04 10:50:59;;;;;;;14.25;9.50;;;461.20;2380.80;;;;;;5028943;28;20018;-72
2023/05/04 10:53:31;;;;;;;13.55;9.93;;;461.30;2380.80;;;;;;5025944;28;20116;-72
2023/05/04 10:55:57;;;;;;;16.58;9.95;;;461.20;2380.80;;;;;;5032404;28;20399;-71
2023/05/04 10:58:32;;;;;;;12.52;9.88;;;461.40;2380.80;;;;;;5030118;28;20024;-72
2023/05/04 11:00:58;;;;;;;14.32;9.73;;;461.50;2380.80;;;;;;5021492;28;20040;-71
2023/05/04 11:03:24;;;;;;;13.57;10.85;;;461.60;2380.80;;;;;;5026045;28;20017;-71
2023/05/04 11:05:51;;;;;;;19.60;9.88;;;461.70;2380.80;;;;;;5026547;28;20073;-72
2023/05/04 11:08:22;;;;;;;12.15;10.07;;;461.70;2380.80;;;;;;5032902;28;20497;-71
2023/05/04 11:11:03;;;;;;;15.05;10.73;;;486.50;2380.80;;;;;;5026725;28;20111;-73
2023/05/04 11:13:32;;;;;;;15.38;10.68;;;486.80;2380.80;;;;;;5023213;28;20029;-72
2023/05/04 11:15:59;;;;;;;12.48;11.02;;;487.00;2380.80;;;;;;5030252;28;20029;-73
2023/05/04 11:18:36;;;;;;;14.68;9.82;;;512.20;2380.80;;;;;;5025377;28;20072;-72
2023/05/04 11:21:02;;;;;;;13.05;10.07;;;512.60;2380.80;;;;;;5028607;28;20025;-74
2023/05/04 11:23:29;;;;;;;13.25;9.68;;;537.70;2406.40;;;;;;5029232;28;20025;-74
2023/05/04 11:25:55;;;;;;;11.93;9.70;;;538.00;2406.40;;;;;;5025191;28;20034;-74
2023/05/04 11:28:37;;;;;;;15.70;10.55;;;512.90;2380.80;;;;;;5033470;28;20465;-74
2023/05/04 11:31:19;;;;;;;14.20;7.70;;;537.70;2406.40;;;;;;5025621;28;20535;-74
2023/05/04 11:33:50;;;;;;;11.82;8.40;;;538.10;2406.40;;;;;;5027768;28;20085;-74
2023/05/04 11:36:16;;;;;;;13.85;9.73;;;538.10;2406.40;;;;;;5026216;28;20030;-78
2023/05/04 11:38:42;;;;;;;11.18;8.77;;;537.70;2406.40;;;;;;5024050;28;20132;-73
2023/05/04 11:41:09;;;;;;;11.32;8.48;;;538.10;2406.40;;;;;;5021341;28;20615;-74
2023/05/04 11:43:36;;;;;;;11.80;8.65;;;538.10;2406.40;;;;;;5026772;28;20025;-74
2023/05/04 11:46:03;;;;;;;13.35;8.93;;;538.00;2406.40;;;;;;5029718;28;20067;-74
2023/05/04 11:48:31;;;;;;;10.85;8.98;;;537.90;2406.40;;;;;;5025098;28;20022;-74
2023/05/04 11:50:57;;;;;;;16.20;9.50;;;537.60;2406.40;;;;;;5032717;28;20068;-74
2023/05/04 11:53:23;;;;;;;11.48;9.00;;;512.90;2380.80;;;;;;5027537;28;20061;-74
2023/05/04 11:55:51;;;;;;;16.83;10.65;;;538.10;2406.40;;;;;;5032752;28;20025;-74
2023/05/04 11:58:24;;;;;;;13.82;10.35;;;538.00;2406.40;;;;;;5033324;28;20025;-74
2023/05/04 12:00:55;;;;;;;12.82;9.88;;;537.80;2406.40;;;;;;5024404;28;20116;-75
2023/05/04 12:03:26;;;;;;;14.52;9.77;;;512.90;2380.80;;;;;;5033786;28;20473;-73
2023/05/04 12:05:56;;;;;;;12.65;9.55;;;512.70;2380.80;;;;;;5030873;28;20124;-74
2023/05/04 12:08:33;;;;;;;12.85;9.93;;;512.50;2380.80;;;;;;5026438;28;20477;-74